Terminal Aerodrome Forecast
Issued by NWS Jackson, MS

Home | Current Version | Previous Version | Text Only | Print | Product List | Glossary On
Versions: 1 2 3 4 5 6 7 8 9 10 11 12
000
FTUS44 KJAN 271721
TAFGWO
TAF
KGWO 271721Z 2718/2818 21011KT P6SM BKN020 BKN050
     FM280100 19007KT P6SM BKN250
     FM280700 19006KT P6SM VCTS BKN250CB
     FM281500 21012KT P6SM VCTS BKN025CB BKN130=

USA.gov is the U.S. government's official web portal to all federal, state and local government web resources and services.